Terminal Aerodrome Forecast
Issued by NWS

Home | Current Version | Previous Version | Text Only | Print | Product List | Glossary On
Versions: 1 2 3 4 5 6 7 8 9 10 11 12 13
000
FTAK31 PAJN 221700
TAFAJN
TAF
PAJN 221731Z 2218/2318 25006KT P6SM BKN200
     FM222100 25008KT P6SM SCT120 BKN200
     FM230400 VRB03KT P6SM VCSH SCT070 BKN100
     FM230900 00000KT P6SM -SHRA BKN050 OVC080
     FM231600 00000KT P6SM VCSH SCT070 BKN100=

USA.gov is the U.S. government's official web portal to all federal, state and local government web resources and services.